Portada
METAR-TAF:

METAR-TAF

Aeroports :

Agartala, Índia

latitud: 23-53-24N, longitud: 91-14-32E, altitud: 14 m

Observació

L'informe es va fer fa 41 minuts, a les 15:00 UTC
Vent calma
Temperatura 31°C
Humitat 89%
Pressió 994 hPa
Visibilitat: 5000 m
Núvols disperses a una alçada de 1800 ft
Escasses núvols a una alçada de 3000 ft, Cumulonimbus.
boirina,

METAR: VEAT 251500Z 00000KT 5000 BR SCT018 FEW030CB 31/29 Q0994 NOSIG

Hora: 21:11 (15:41 UTC)

Pronòstic

L'informe es va fer fa 1 hora i 41 minuts, a les 14:00 UTC
Pronòstic vàlid del 25 a les 15 UTC al 25 a les 24 UTC
Vent 3 kt del Est/Sud-Est
Visibilitat: 5000 m
Núvols disperses a una alçada de 1800 ft
Escasses núvols a una alçada de 3000 ft, Cumulonimbus.
calitja
Evolucionant progressivament
l' 25 a les 22 UTC al 25 a les 24 UTC
Visibilitat: 3000 m
Escasses núvols a una alçada de 1800 ft
Núvols disperses a una alçada de 10000 ft
boirina,

TAF: VEAT 251400Z 2515/2524 12003KT 5000 HZ SCT018 FEW030CB BECMG 2522/2524 3000 BR FEW018 SCT100

Observacions i pronòstics meteorològics de més de 4000 aeroports (METAR i TAF).

Les estacions disponibles són els punts grocs i vermells al mapa.

Posi el ratolí al punt desitjat per veure el nom de l'estació.

Feu clic per veure les observacions i els pronòstics meteorològics.

Per canviar el mapa: feu clic els botons verds amb una creu de color negre per apropar; al botó verd amb un guió per allunyar la imatge; o en les fletxes verdes per a mapes adjacents.


METAR-TAF: